createdAt,value
2022-09-23T00:01:26.292Z,23.97
2022-09-23T00:03:54.931Z,20.27
2022-09-23T00:06:23.866Z,22.40
2022-09-23T00:08:52.184Z,21.47
2022-09-23T00:11:21.929Z,22.50
2022-09-23T00:13:52.598Z,21.60
2022-09-23T00:16:21.808Z,21.40
2022-09-23T00:18:50.922Z,21.63
2022-09-23T00:21:19.745Z,22.27
2022-09-23T00:23:48.095Z,22.13
2022-09-23T00:26:17.170Z,21.73
2022-09-23T00:28:45.983Z,22.13
2022-09-23T00:31:17.002Z,21.43
2022-09-23T00:33:45.289Z,20.57
2022-09-23T00:36:16.806Z,21.93
2022-09-23T00:38:45.315Z,21.27
2022-09-23T00:41:15.314Z,20.37
2022-09-23T00:43:44.729Z,19.70
2022-09-23T00:46:15.058Z,20.70
2022-09-23T00:48:44.589Z,19.80
2022-09-23T00:51:14.389Z,19.80
2022-09-23T00:53:42.519Z,20.00
2022-09-23T00:56:10.656Z,20.53
2022-09-23T00:58:39.603Z,20.27
2022-09-23T01:01:07.831Z,21.10
2022-09-23T01:03:36.509Z,21.50
2022-09-23T01:06:06.655Z,21.93
2022-09-23T01:08:34.754Z,20.83
2022-09-23T01:11:08.079Z,22.83
2022-09-23T01:13:39.931Z,21.20
2022-09-23T01:16:10.185Z,19.77
2022-09-23T01:18:43.547Z,20.00
2022-09-23T01:21:24.928Z,20.70
2022-09-23T01:24:19.491Z,19.73
2022-09-23T01:26:57.848Z,17.60
2022-09-23T01:29:37.469Z,19.60
2022-09-23T01:32:08.875Z,19.40
2022-09-23T01:34:39.056Z,19.47
2022-09-23T01:37:09.295Z,19.27
2022-09-23T01:39:38.227Z,18.10
2022-09-23T01:42:07.697Z,18.90
2022-09-23T01:44:38.800Z,18.33
2022-09-23T01:47:11.206Z,19.33
2022-09-23T01:49:43.666Z,20.87
2022-09-23T01:52:16.550Z,18.97
2022-09-23T01:54:47.952Z,19.07
2022-09-23T01:57:18.895Z,21.03
2022-09-23T01:59:48.384Z,19.73
2022-09-23T02:02:19.882Z,20.13
2022-09-23T02:04:49.337Z,19.80
2022-09-23T02:07:20.408Z,20.23
2022-09-23T02:09:54.107Z,20.70
2022-09-23T02:12:22.388Z,19.90
2022-09-23T02:14:51.872Z,19.60
2022-09-23T02:17:24.292Z,18.93
2022-09-23T02:19:54.213Z,18.83
2022-09-23T02:22:25.129Z,21.13
2022-09-23T02:24:54.813Z,19.33
2022-09-23T02:27:26.105Z,19.30
2022-09-23T02:29:56.866Z,19.00
2022-09-23T02:32:29.496Z,20.63
2022-09-23T02:35:00.559Z,18.47
2022-09-23T02:37:32.588Z,19.47
2022-09-23T02:40:03.209Z,18.70
2022-09-23T02:42:35.830Z,20.50
2022-09-23T02:45:04.249Z,21.17
2022-09-23T02:47:33.781Z,21.63
2022-09-23T02:50:02.491Z,22.63
2022-09-23T02:52:30.777Z,22.73
2022-09-23T02:54:59.007Z,22.73
2022-09-23T02:57:27.107Z,25.03
2022-09-23T02:59:55.220Z,22.23
2022-09-23T03:02:37.096Z,22.10
2022-09-23T03:05:08.551Z,23.93
2022-09-23T03:07:41.709Z,23.00
2022-09-23T03:10:12.204Z,21.57
2022-09-23T03:12:41.640Z,24.03
2022-09-23T03:15:22.224Z,21.20
2022-09-23T03:17:56.279Z,21.07
2022-09-23T03:20:27.403Z,21.93
2022-09-23T03:22:57.327Z,22.07
2022-09-23T03:25:25.948Z,20.67
2022-09-23T03:27:57.090Z,22.17
2022-09-23T03:30:26.303Z,20.17
2022-09-23T03:32:56.165Z,20.20
2022-09-23T03:35:24.806Z,20.97
2022-09-23T03:37:55.118Z,20.13
2022-09-23T03:40:25.001Z,21.50
2022-09-23T03:42:53.505Z,21.17
2022-09-23T03:45:32.184Z,20.20
2022-09-23T03:48:01.950Z,19.47
2022-09-23T03:50:30.277Z,19.33
2022-09-23T03:52:59.409Z,19.13
2022-09-23T03:55:27.527Z,19.47
2022-09-23T03:57:55.670Z,20.20
2022-09-23T04:00:24.006Z,20.90
2022-09-23T04:02:52.390Z,19.27
2022-09-23T04:05:22.607Z,19.17
2022-09-23T04:07:51.221Z,19.30
2022-09-23T04:10:19.519Z,18.60
2022-09-23T04:12:47.797Z,20.00
2022-09-23T04:15:16.023Z,20.20
2022-09-23T04:17:44.251Z,19.73
2022-09-23T04:20:12.531Z,20.60
2022-09-23T04:22:42.252Z,20.30
2022-09-23T04:25:10.927Z,21.47
2022-09-23T04:27:39.075Z,23.53
2022-09-23T04:30:08.211Z,24.60
2022-09-23T04:32:36.316Z,21.73
2022-09-23T04:35:04.915Z,21.87
2022-09-23T04:37:34.722Z,23.43
2022-09-23T04:40:06.924Z,23.67
2022-09-23T04:42:35.129Z,22.77
2022-09-23T04:45:04.626Z,21.30
2022-09-23T04:47:33.062Z,22.53
2022-09-23T04:50:01.256Z,23.17
2022-09-23T04:52:29.648Z,22.07
2022-09-23T04:54:57.774Z,22.60
2022-09-23T04:57:27.273Z,24.00
2022-09-23T04:59:57.498Z,23.50
2022-09-23T05:02:26.187Z,22.63
2022-09-23T05:04:54.399Z,23.70
2022-09-23T05:07:22.585Z,23.87
2022-09-23T05:09:50.690Z,23.57
2022-09-23T05:12:19.356Z,24.00
2022-09-23T05:14:49.089Z,23.27
2022-09-23T05:17:17.213Z,23.90
2022-09-23T05:19:45.451Z,23.90
2022-09-23T05:22:13.574Z,25.13
2022-09-23T05:24:41.761Z,25.77
2022-09-23T05:27:10.104Z,25.87
2022-09-23T05:29:39.525Z,24.17
2022-09-23T05:32:09.902Z,26.17
2022-09-23T05:34:38.197Z,26.20
2022-09-23T05:37:06.463Z,24.47
2022-09-23T05:39:34.547Z,25.07
2022-09-23T05:42:02.887Z,24.63
2022-09-23T05:44:31.351Z,24.07
2022-09-23T05:46:59.558Z,22.07
2022-09-23T05:49:48.337Z,23.63
2022-09-23T05:52:17.892Z,25.30
2022-09-23T05:54:46.143Z,24.60
2022-09-23T05:57:14.277Z,24.37
2022-09-23T05:59:43.556Z,25.50
2022-09-23T06:02:11.738Z,24.13
2022-09-23T06:04:41.312Z,24.77
2022-09-23T06:07:09.585Z,24.73
2022-09-23T06:09:37.881Z,23.60
2022-09-23T06:12:06.473Z,24.73
2022-09-23T06:14:34.629Z,24.13
2022-09-23T06:17:02.753Z,24.83
2022-09-23T06:19:30.865Z,23.83
2022-09-23T06:22:00.359Z,27.03
2022-09-23T06:24:31.335Z,23.77
2022-09-23T06:27:01.054Z,26.43
2022-09-23T06:29:30.959Z,25.07
2022-09-23T06:31:59.776Z,24.70
2022-09-23T06:34:27.976Z,25.00
2022-09-23T06:36:56.085Z,24.43
2022-09-23T06:39:25.673Z,25.37
2022-09-23T06:41:54.401Z,26.57
2022-09-23T06:44:22.492Z,26.90
2022-09-23T06:46:51.783Z,27.43
2022-09-23T06:49:21.609Z,27.07
2022-09-23T06:51:49.932Z,29.77
2022-09-23T06:54:18.570Z,30.73
2022-09-23T06:56:48.464Z,31.37
2022-09-23T06:59:17.120Z,28.53
2022-09-23T07:01:47.715Z,27.83
2022-09-23T07:04:16.080Z,28.63
2022-09-23T07:06:44.288Z,28.03
2022-09-23T07:09:12.412Z,31.00
2022-09-23T07:11:40.593Z,31.03
2022-09-23T07:14:10.058Z,29.33
2022-09-23T07:16:38.176Z,29.23
2022-09-23T07:19:06.423Z,30.53
2022-09-23T07:21:34.623Z,34.67
2022-09-23T07:24:02.967Z,32.07
2022-09-23T07:26:34.159Z,29.67
2022-09-23T07:29:05.202Z,28.37
2022-09-23T07:31:39.760Z,29.57
2022-09-23T07:34:08.637Z,33.57
2022-09-23T07:36:37.813Z,35.87
2022-09-23T07:39:05.962Z,36.77
2022-09-23T07:41:34.550Z,37.00
2022-09-23T07:44:03.204Z,36.77
2022-09-23T07:46:32.124Z,38.00
2022-09-23T07:49:02.038Z,35.77
2022-09-23T07:51:35.748Z,34.90
2022-09-23T07:54:05.443Z,37.00
2022-09-23T07:56:33.627Z,33.40
2022-09-23T07:59:03.241Z,34.17
2022-09-23T08:01:32.672Z,33.90
2022-09-23T08:04:04.082Z,33.83
2022-09-23T08:06:32.208Z,32.17
2022-09-23T08:09:00.783Z,32.20
2022-09-23T08:11:29.057Z,30.93
2022-09-23T08:13:57.302Z,29.17
2022-09-23T08:16:25.467Z,31.00
2022-09-23T08:18:53.613Z,27.93
2022-09-23T08:21:23.307Z,25.97
2022-09-23T08:23:51.902Z,26.03
2022-09-23T08:26:22.306Z,26.60
2022-09-23T08:28:50.793Z,24.80
2022-09-23T08:31:19.043Z,24.63
2022-09-23T08:33:47.351Z,22.97
2022-09-23T08:36:15.460Z,23.67
2022-09-23T08:38:44.959Z,22.03
2022-09-23T08:41:16.545Z,22.47
2022-09-23T08:43:47.471Z,22.57
2022-09-23T08:46:15.707Z,20.37
2022-09-23T08:48:44.520Z,19.23
2022-09-23T08:51:14.877Z,17.93
2022-09-23T08:53:45.676Z,17.13
2022-09-23T08:56:15.625Z,16.60
2022-09-23T08:58:48.865Z,17.20
2022-09-23T09:01:22.163Z,17.47
2022-09-23T09:03:52.046Z,19.10
2022-09-23T09:06:21.893Z,18.33
2022-09-23T09:08:58.905Z,18.23
2022-09-23T09:11:31.535Z,15.73
2022-09-23T09:14:02.232Z,17.30
2022-09-23T09:17:01.217Z,17.40
2022-09-23T09:19:47.410Z,16.70
2022-09-23T09:22:17.066Z,17.20
2022-09-23T09:24:46.730Z,16.80
2022-09-23T09:27:14.939Z,17.13
2022-09-23T09:29:44.232Z,16.57
2022-09-23T09:32:21.089Z,19.23
2022-09-23T09:34:54.127Z,19.93
2022-09-23T09:37:24.848Z,18.70
2022-09-23T09:39:54.254Z,18.43
2022-09-23T09:42:25.301Z,21.03
2022-09-23T09:44:55.516Z,18.50
2022-09-23T09:47:29.591Z,19.10
2022-09-23T09:49:59.051Z,19.40
2022-09-23T09:52:28.839Z,18.00
2022-09-23T09:55:17.225Z,16.10
2022-09-23T09:57:46.740Z,14.67
2022-09-23T10:00:20.682Z,14.90
2022-09-23T10:02:50.288Z,13.97
2022-09-23T10:05:27.195Z,12.40
2022-09-23T10:07:55.576Z,12.77
2022-09-23T10:10:32.799Z,11.70
2022-09-23T10:13:02.612Z,11.73
2022-09-23T10:15:33.303Z,9.80
2022-09-23T10:18:02.226Z,11.70
2022-09-23T10:20:38.172Z,12.00
2022-09-23T10:23:09.988Z,11.70
2022-09-23T10:25:39.571Z,14.27
2022-09-23T10:28:34.104Z,11.97
2022-09-23T10:31:06.127Z,12.87
2022-09-23T10:33:34.442Z,11.97
2022-09-23T10:36:02.807Z,13.03
2022-09-23T10:38:31.207Z,9.60
2022-09-23T10:41:18.320Z,9.63
2022-09-23T10:44:11.565Z,9.57
2022-09-23T10:46:42.165Z,7.77
2022-09-23T10:49:29.044Z,5.63
2022-09-23T10:52:04.354Z,5.03
2022-09-23T10:54:35.770Z,6.07
2022-09-23T10:57:27.243Z,6.37
2022-09-23T10:59:58.284Z,6.93
2022-09-23T11:02:40.672Z,6.30
2022-09-23T11:05:20.086Z,5.30
2022-09-23T11:07:51.496Z,3.63
2022-09-23T11:10:55.929Z,3.20
2022-09-23T11:13:34.032Z,3.37
2022-09-23T11:16:06.688Z,3.00
2022-09-23T11:18:52.422Z,3.53
2022-09-23T11:21:32.771Z,3.23
2022-09-23T11:24:43.405Z,3.00
2022-09-23T11:27:15.202Z,3.10
2022-09-23T11:30:11.345Z,3.33
2022-09-23T11:33:16.200Z,3.30
2022-09-23T11:35:47.801Z,3.90
2022-09-23T11:38:19.040Z,3.47
2022-09-23T11:40:48.585Z,4.17
2022-09-23T11:43:19.846Z,3.27
2022-09-23T11:45:51.491Z,3.20
2022-09-23T11:48:21.680Z,3.77
2022-09-23T11:50:51.371Z,3.60
2022-09-23T11:53:21.603Z,3.07
2022-09-23T11:55:58.301Z,3.00
2022-09-23T11:58:28.624Z,3.40
2022-09-23T12:01:01.522Z,3.30
2022-09-23T12:03:43.730Z,3.33
2022-09-23T12:06:15.908Z,3.43
2022-09-23T12:08:44.737Z,3.60
2022-09-23T12:11:21.198Z,3.57
2022-09-23T12:13:50.844Z,3.47
2022-09-23T12:16:44.816Z,3.47
2022-09-23T12:19:20.928Z,3.10
2022-09-23T12:22:01.397Z,3.37
2022-09-23T12:24:47.203Z,4.40
2022-09-23T12:27:23.292Z,3.80
2022-09-23T12:29:53.902Z,3.97
2022-09-23T12:32:24.799Z,3.97
2022-09-23T12:34:52.988Z,3.63
2022-09-23T12:37:29.430Z,3.40
2022-09-23T12:40:00.985Z,2.40
2022-09-23T12:42:31.255Z,3.30
2022-09-23T12:45:34.775Z,2.87
2022-09-23T12:48:05.205Z,3.00
2022-09-23T12:50:53.119Z,2.60
2022-09-23T12:53:58.563Z,2.80
2022-09-23T12:56:53.285Z,2.37
2022-09-23T12:59:28.442Z,2.50
2022-09-23T13:01:56.738Z,2.27
2022-09-23T13:05:02.616Z,2.63
2022-09-23T13:07:34.037Z,2.37
2022-09-23T13:10:08.014Z,2.37
2022-09-23T13:12:38.386Z,2.10
2022-09-23T13:15:12.560Z,2.20
2022-09-23T13:17:41.092Z,2.10
2022-09-23T13:20:34.851Z,2.47
2022-09-23T13:23:23.307Z,2.30
2022-09-23T13:25:52.567Z,2.10
2022-09-23T13:28:40.617Z,2.40
2022-09-23T13:31:15.572Z,2.40
2022-09-23T13:33:44.963Z,2.17
2022-09-23T13:36:16.204Z,2.23
2022-09-23T13:38:46.159Z,3.37
2022-09-23T13:41:16.523Z,3.13
2022-09-23T13:43:46.037Z,2.20
2022-09-23T13:46:17.529Z,2.57
2022-09-23T13:48:46.865Z,2.20
2022-09-23T13:51:24.669Z,2.20
2022-09-23T13:53:53.501Z,2.13
2022-09-23T13:56:22.039Z,2.00
2022-09-23T13:58:50.129Z,2.27
2022-09-23T14:01:23.070Z,2.50
2022-09-23T14:03:52.136Z,2.30
2022-09-23T14:06:21.813Z,2.80
2022-09-23T14:08:51.236Z,2.90
2022-09-23T14:11:20.072Z,2.73
2022-09-23T14:13:48.709Z,3.50
2022-09-23T14:16:17.333Z,3.33
2022-09-23T14:18:46.531Z,3.13
2022-09-23T14:21:35.377Z,3.63
2022-09-23T14:24:17.134Z,3.27
2022-09-23T14:26:47.072Z,3.20
2022-09-23T14:29:16.739Z,3.20
2022-09-23T14:31:56.850Z,2.90
2022-09-23T14:35:06.912Z,3.13
2022-09-23T14:37:58.524Z,3.40
2022-09-23T14:40:27.656Z,3.23
2022-09-23T14:42:59.288Z,2.50
2022-09-23T14:45:28.410Z,3.07
2022-09-23T14:47:59.539Z,3.00
2022-09-23T14:50:39.593Z,3.07
2022-09-23T14:53:40.551Z,2.70
2022-09-23T14:56:16.977Z,3.23
2022-09-23T14:58:52.706Z,3.33
2022-09-23T15:01:29.275Z,3.50
2022-09-23T15:03:57.761Z,4.00
2022-09-23T15:06:26.511Z,3.63
2022-09-23T15:08:56.457Z,3.97
2022-09-23T15:11:25.311Z,4.77
2022-09-23T15:13:53.842Z,4.17
2022-09-23T15:16:26.039Z,4.20
2022-09-23T15:18:55.819Z,3.50
2022-09-23T15:21:25.005Z,2.60
2022-09-23T15:23:55.078Z,2.73
2022-09-23T15:26:25.324Z,2.77
2022-09-23T15:28:55.940Z,2.80
2022-09-23T15:31:26.842Z,3.33
2022-09-23T15:33:56.093Z,3.13
2022-09-23T15:36:25.914Z,2.97
2022-09-23T15:38:54.420Z,2.80
2022-09-23T15:41:24.203Z,3.40
2022-09-23T15:43:52.419Z,3.30
2022-09-23T15:46:22.269Z,3.40
2022-09-23T15:48:58.619Z,3.33
2022-09-23T15:51:27.302Z,3.83
2022-09-23T15:53:56.452Z,3.17
2022-09-23T15:56:27.164Z,3.20
2022-09-23T15:58:55.300Z,3.53
2022-09-23T16:01:25.871Z,2.97
2022-09-23T16:03:54.000Z,3.37
2022-09-23T16:06:22.578Z,3.10
2022-09-23T16:08:52.022Z,3.00
2022-09-23T16:11:21.061Z,3.20
2022-09-23T16:13:51.138Z,3.00
2022-09-23T16:16:21.244Z,2.80
2022-09-23T16:18:52.035Z,2.87
2022-09-23T16:21:22.461Z,3.50
2022-09-23T16:23:51.992Z,2.93
2022-09-23T16:26:21.851Z,3.07
2022-09-23T16:28:52.389Z,2.87
2022-09-23T16:31:20.822Z,2.87
2022-09-23T16:33:50.573Z,3.30
2022-09-23T16:36:22.208Z,3.50
2022-09-23T16:38:50.338Z,3.17
2022-09-23T16:41:18.498Z,3.20
2022-09-23T16:43:47.333Z,3.20
2022-09-23T16:46:17.374Z,3.33
2022-09-23T16:48:51.420Z,3.70
2022-09-23T16:51:21.833Z,3.67
2022-09-23T16:53:50.196Z,3.50
2022-09-23T16:56:25.656Z,4.17
2022-09-23T16:58:56.188Z,4.43
2022-09-23T17:01:44.133Z,3.60
2022-09-23T17:04:12.276Z,4.30
2022-09-23T17:06:44.384Z,5.13
2022-09-23T17:09:12.999Z,4.70
2022-09-23T17:11:41.420Z,5.33
2022-09-23T17:14:10.430Z,5.67
2022-09-23T17:16:40.242Z,5.90
2022-09-23T17:19:08.804Z,6.10
2022-09-23T17:21:37.107Z,5.97
2022-09-23T17:24:05.937Z,6.97
2022-09-23T17:26:34.233Z,6.13
2022-09-23T17:29:02.836Z,7.43
2022-09-23T17:31:31.112Z,6.67
2022-09-23T17:34:00.913Z,7.57
2022-09-23T17:36:29.343Z,6.83
2022-09-23T17:38:57.447Z,7.43
2022-09-23T17:41:25.636Z,7.60
2022-09-23T17:43:58.635Z,8.13
2022-09-23T17:46:29.082Z,7.60
2022-09-23T17:48:57.182Z,8.53
2022-09-23T17:51:27.285Z,9.37
2022-09-23T17:53:55.405Z,10.63
2022-09-23T17:56:25.048Z,10.57
2022-09-23T17:58:53.606Z,10.70
2022-09-23T18:01:23.200Z,12.77
2022-09-23T18:03:54.798Z,12.47
2022-09-23T18:06:23.788Z,11.40
2022-09-23T18:08:53.736Z,11.20
2022-09-23T18:11:22.702Z,10.73
2022-09-23T18:13:51.381Z,11.63
2022-09-23T18:16:19.871Z,10.60
2022-09-23T18:18:51.819Z,11.17
2022-09-23T18:21:20.750Z,13.03
2022-09-23T18:23:49.101Z,14.13
2022-09-23T18:26:20.394Z,16.30
2022-09-23T18:28:48.504Z,17.17
2022-09-23T18:31:18.272Z,16.00
2022-09-23T18:33:50.485Z,17.07
2022-09-23T18:36:18.714Z,15.30
2022-09-23T18:38:47.019Z,15.87
2022-09-23T18:41:15.369Z,15.77
2022-09-23T18:43:48.349Z,15.53
2022-09-23T18:46:17.626Z,14.67
2022-09-23T18:49:03.123Z,14.03
2022-09-23T18:51:32.230Z,15.03
2022-09-23T18:54:01.211Z,14.30
2022-09-23T18:56:33.533Z,13.03
2022-09-23T18:59:03.394Z,14.60
2022-09-23T19:01:31.731Z,14.17
2022-09-23T19:04:02.091Z,13.30
2022-09-23T19:06:30.522Z,13.50
2022-09-23T19:08:58.631Z,14.43
2022-09-23T19:11:26.817Z,13.60
2022-09-23T19:13:55.879Z,15.47
2022-09-23T19:16:25.936Z,13.67
2022-09-23T19:18:54.469Z,14.57
2022-09-23T19:21:23.298Z,13.93
2022-09-23T19:23:52.259Z,14.23
2022-09-23T19:26:21.825Z,14.47
2022-09-23T19:28:50.339Z,14.87
2022-09-23T19:31:23.263Z,15.97
2022-09-23T19:33:57.005Z,16.50
2022-09-23T19:36:29.024Z,15.13
2022-09-23T19:38:58.375Z,14.53
2022-09-23T19:41:28.144Z,14.13
2022-09-23T19:43:57.015Z,14.93
2022-09-23T19:46:25.308Z,14.20
2022-09-23T19:48:53.442Z,17.20
2022-09-23T19:51:23.729Z,17.80
2022-09-23T19:53:51.900Z,17.40
2022-09-23T19:56:20.180Z,15.17
2022-09-23T19:58:48.779Z,15.13
2022-09-23T20:01:17.492Z,14.83
2022-09-23T20:03:45.831Z,15.70
2022-09-23T20:06:14.194Z,15.63
2022-09-23T20:08:43.815Z,14.30
2022-09-23T20:11:12.720Z,13.97
2022-09-23T20:13:41.175Z,14.50
2022-09-23T20:16:11.903Z,13.67
2022-09-23T20:18:40.249Z,13.80
2022-09-23T20:21:09.026Z,16.10
2022-09-23T20:23:37.257Z,14.70
2022-09-23T20:26:24.982Z,18.63
2022-09-23T20:28:53.281Z,24.47
2022-09-23T20:31:22.245Z,23.43
2022-09-23T20:33:51.707Z,24.10
2022-09-23T20:36:20.106Z,22.37
2022-09-23T20:38:48.629Z,19.87
2022-09-23T20:41:18.224Z,20.50
2022-09-23T20:43:47.666Z,20.90
2022-09-23T20:46:17.263Z,22.70
2022-09-23T20:48:47.530Z,21.73
2022-09-23T20:51:15.704Z,17.30
2022-09-23T20:53:44.602Z,15.93
2022-09-23T20:56:13.041Z,17.57
2022-09-23T20:58:42.903Z,17.73
2022-09-23T21:01:12.512Z,18.53
2022-09-23T21:03:41.507Z,19.30
2022-09-23T21:06:10.250Z,19.70
2022-09-23T21:08:39.418Z,18.87
2022-09-23T21:11:09.153Z,17.00
2022-09-23T21:13:37.587Z,18.53
2022-09-23T21:16:09.005Z,20.27
2022-09-23T21:18:37.560Z,18.50
2022-09-23T21:21:06.486Z,18.93
2022-09-23T21:23:35.526Z,18.83
2022-09-23T21:26:04.165Z,18.93
2022-09-23T21:28:33.083Z,18.67
2022-09-23T21:31:01.797Z,19.73
2022-09-23T21:33:31.600Z,18.37
2022-09-23T21:36:04.518Z,18.43
2022-09-23T21:38:32.760Z,18.43
2022-09-23T21:41:00.947Z,17.80
2022-09-23T21:43:32.534Z,17.27
2022-09-23T21:46:02.448Z,17.00
2022-09-23T21:48:32.794Z,16.10
2022-09-23T21:51:01.701Z,16.37
2022-09-23T21:53:31.312Z,15.47
2022-09-23T21:56:03.803Z,15.43
2022-09-23T21:58:32.511Z,15.73
2022-09-23T22:01:01.225Z,16.00
2022-09-23T22:03:29.509Z,15.43
2022-09-23T22:06:09.706Z,14.97
2022-09-23T22:08:39.010Z,13.10
2022-09-23T22:11:08.093Z,12.57
2022-09-23T22:13:36.233Z,13.07
2022-09-23T22:16:06.178Z,13.50
2022-09-23T22:18:34.460Z,13.00
2022-09-23T22:21:02.574Z,13.30
2022-09-23T22:23:32.051Z,13.17
2022-09-23T22:26:03.202Z,15.83
2022-09-23T22:28:50.669Z,14.23
2022-09-23T22:31:37.091Z,13.70
2022-09-23T22:34:05.451Z,13.97
2022-09-23T22:36:34.109Z,14.20
2022-09-23T22:39:05.137Z,14.77
2022-09-23T22:41:35.585Z,14.93
2022-09-23T22:44:04.270Z,14.67
2022-09-23T22:46:35.537Z,14.93
2022-09-23T22:49:04.601Z,16.53
2022-09-23T22:51:32.932Z,17.13
2022-09-23T22:54:01.055Z,18.70
2022-09-23T22:56:30.617Z,21.93
2022-09-23T22:59:01.793Z,21.77
2022-09-23T23:01:31.197Z,23.00
2022-09-23T23:04:01.305Z,22.17
2022-09-23T23:06:36.557Z,22.37
2022-09-23T23:09:06.823Z,22.17
2022-09-23T23:11:36.528Z,22.03
2022-09-23T23:14:04.926Z,21.27
2022-09-23T23:16:35.115Z,23.70
2022-09-23T23:19:04.188Z,22.47
2022-09-23T23:21:32.331Z,22.13
2022-09-23T23:24:00.586Z,22.23
2022-09-23T23:26:29.790Z,20.77
2022-09-23T23:28:59.271Z,22.40
2022-09-23T23:31:28.641Z,25.23
2022-09-23T23:33:56.932Z,26.13
2022-09-23T23:36:25.204Z,24.70
2022-09-23T23:38:53.294Z,25.50
2022-09-23T23:41:22.741Z,27.93
2022-09-23T23:43:56.081Z,27.67
2022-09-23T23:46:26.640Z,27.60
2022-09-23T23:48:55.120Z,26.27
2022-09-23T23:51:23.475Z,29.10
2022-09-23T23:53:53.282Z,30.07
2022-09-23T23:56:22.399Z,28.43
2022-09-23T23:58:54.856Z,28.57
